Time;durP1;ratioP1;P1;durP2;ratioP2;P2;SDS_P1;SDS_P2;PMS_P1;PMS_P2;Temp;Humidity;BMP_temperature;BMP_pressure;BME280_temperature;BME280_humidity;BME280_pressure;Samples;Min_cycle;Max_cycle;Signal;HPM_P1;HPM_P2
2022/08/07 00:01:04;;;;;;;2.38;1.50;;;24.20;73.50;;;;;;5089789;28;20106;-81
2022/08/07 00:03:30;;;;;;;2.95;1.17;;;24.10;74.70;;;;;;5107725;28;20031;-80
2022/08/07 00:05:56;;;;;;;6.20;1.52;;;23.90;75.60;;;;;;5089849;28;20031;-81
2022/08/07 00:08:21;;;;;;;2.45;1.25;;;23.90;76.20;;;;;;5089838;28;20466;-81
2022/08/07 00:10:48;;;;;;;3.08;1.50;;;23.80;76.10;;;;;;5090187;28;20039;-79
2022/08/07 00:13:15;;;;;;;2.03;1.15;;;23.70;76.60;;;;;;5089792;28;20091;-82
2022/08/07 00:15:41;;;;;;;2.90;1.20;;;23.70;77.40;;;;;;5085342;28;20120;-80
2022/08/07 00:18:08;;;;;;;3.35;1.00;;;23.50;78.30;;;;;;5086457;28;20085;-81
2022/08/07 00:20:34;;;;;;;1.67;1.23;;;23.40;78.50;;;;;;5089486;28;20470;-81
2022/08/07 00:23:00;;;;;;;4.55;1.02;;;23.30;79.20;;;;;;5108231;28;20035;-81
2022/08/07 00:25:26;;;;;;;17.48;1.25;;;23.10;79.70;;;;;;5089348;28;20034;-81
2022/08/07 00:27:52;;;;;;;2.40;0.90;;;23.00;80.10;;;;;;5089641;28;20077;-81
2022/08/07 00:30:17;;;;;;;8.93;1.20;;;23.00;80.20;;;;;;5107575;28;20498;-81
2022/08/07 00:32:46;;;;;;;2.35;1.25;;;22.90;80.30;;;;;;5088852;28;20519;-81
2022/08/07 00:35:12;;;;;;;1.90;1.20;;;23.00;80.40;;;;;;5089084;28;20543;-82
2022/08/07 00:37:38;;;;;;;3.08;1.55;;;22.90;80.20;;;;;;5089510;28;20126;-81
2022/08/07 00:40:04;;;;;;;2.28;1.13;;;22.80;80.20;;;;;;5089076;28;20023;-80
2022/08/07 00:42:32;;;;;;;1.83;0.98;;;22.90;80.20;;;;;;5089688;28;20027;-81
2022/08/07 00:44:58;;;;;;;1.38;1.10;;;22.90;80.20;;;;;;5089540;28;20557;-81
2022/08/07 00:47:23;;;;;;;2.17;0.90;;;22.80;80.10;;;;;;5088875;28;20027;-81
2022/08/07 00:49:49;;;;;;;3.13;0.88;;;22.80;80.50;;;;;;5089232;28;20119;-80
2022/08/07 00:52:15;;;;;;;4.55;1.17;;;22.70;80.70;;;;;;5107234;28;20396;-78
2022/08/07 00:54:41;;;;;;;1.80;1.05;;;22.70;80.70;;;;;;5107579;28;20472;-80
2022/08/07 00:57:08;;;;;;;1.15;0.90;;;22.80;80.90;;;;;;5107115;28;20044;-80
2022/08/07 00:59:36;;;;;;;2.20;1.17;;;22.70;81.50;;;;;;5107100;28;20020;-81
2022/08/07 01:02:04;;;;;;;3.55;0.80;;;22.80;80.90;;;;;;5106585;28;20023;-80
2022/08/07 01:04:30;;;;;;;6.85;1.38;;;22.80;80.90;;;;;;5106872;28;20024;-79
2022/08/07 01:06:56;;;;;;;2.28;0.95;;;22.80;81.00;;;;;;5089014;28;20027;-81
2022/08/07 01:09:22;;;;;;;1.20;0.75;;;22.80;80.90;;;;;;5107053;28;20089;-80
2022/08/07 01:11:50;;;;;;;1.85;1.00;;;22.80;80.80;;;;;;5088684;28;20015;-80
2022/08/07 01:14:16;;;;;;;2.35;0.90;;;22.90;80.30;;;;;;5088510;28;20038;-81
2022/08/07 01:16:42;;;;;;;0.98;0.60;;;22.80;80.40;;;;;;5106643;28;20054;-81
2022/08/07 01:19:08;;;;;;;1.25;0.70;;;22.80;80.60;;;;;;5088181;28;20387;-80
2022/08/07 01:21:34;;;;;;;1.27;0.80;;;22.80;80.60;;;;;;5106933;28;20039;-81
2022/08/07 01:24:01;;;;;;;2.40;1.20;;;22.80;80.70;;;;;;5088442;28;20699;-81
2022/08/07 01:26:27;;;;;;;5.53;0.73;;;22.80;81.10;;;;;;5088532;28;20548;-81
2022/08/07 01:28:54;;;;;;;1.27;0.88;;;22.80;81.30;;;;;;5088892;28;20022;-81
2022/08/07 01:31:26;;;;;;;1.40;0.98;;;22.80;81.60;;;;;;5088319;28;20039;-81
2022/08/07 01:33:52;;;;;;;1.70;1.15;;;22.80;82.30;;;;;;5088359;28;20093;-80
2022/08/07 01:36:19;;;;;;;4.32;1.10;;;22.80;82.80;;;;;;5106429;28;20104;-80
2022/08/07 01:38:44;;;;;;;1.92;1.35;;;22.80;82.70;;;;;;5107205;28;20027;-81
2022/08/07 01:41:10;;;;;;;1.60;0.93;;;22.80;83.00;;;;;;5087470;28;20507;-80
2022/08/07 01:43:36;;;;;;;2.30;0.90;;;22.80;83.90;;;;;;5088715;28;20107;-80
2022/08/07 01:46:03;;;;;;;3.55;0.95;;;22.80;84.30;;;;;;5088468;28;20024;-80
2022/08/07 01:48:31;;;;;;;5.32;1.05;;;22.80;84.90;;;;;;5106285;28;20024;-80
2022/08/07 01:51:03;;;;;;;4.00;1.27;;;22.80;85.40;;;;;;5088352;28;20027;-80
2022/08/07 01:53:31;;;;;;;4.10;1.42;;;22.70;86.00;;;;;;5092745;28;20023;-81
2022/08/07 01:56:04;;;;;;;1.98;1.55;;;22.70;86.50;;;;;;5110375;28;20039;-81
2022/08/07 01:58:47;;;;;;;1.58;0.98;;;22.60;87.50;;;;;;5092652;28;20024;-81
2022/08/07 02:01:17;;;;;;;2.05;1.40;;;22.60;88.00;;;;;;5091976;28;20091;-81
2022/08/07 02:03:46;;;;;;;1.98;1.33;;;22.50;88.50;;;;;;5110341;28;20039;-80
2022/08/07 02:06:15;;;;;;;2.45;1.48;;;22.50;88.50;;;;;;5092325;28;20066;-81
2022/08/07 02:08:42;;;;;;;1.85;1.30;;;22.60;88.70;;;;;;5110739;28;20043;-81
2022/08/07 02:11:10;;;;;;;3.75;1.45;;;22.60;88.70;;;;;;5110440;28;20077;-81
2022/08/07 02:13:37;;;;;;;1.40;1.00;;;22.60;89.10;;;;;;5092591;28;20016;-81
2022/08/07 02:16:05;;;;;;;1.48;1.00;;;22.70;89.60;;;;;;5091802;28;20055;-81
2022/08/07 02:18:34;;;;;;;1.55;0.85;;;22.60;90.00;;;;;;5110515;28;20027;-81
2022/08/07 02:21:02;;;;;;;1.30;0.90;;;22.50;90.40;;;;;;5111419;28;20057;-81
2022/08/07 02:23:32;;;;;;;1.85;1.10;;;22.50;90.90;;;;;;5092592;28;20446;-82
2022/08/07 02:25:59;;;;;;;2.00;0.75;;;22.40;91.30;;;;;;5092206;28;20130;-81
2022/08/07 02:28:27;;;;;;;1.35;0.80;;;22.40;91.90;;;;;;5092245;28;20028;-80
2022/08/07 02:30:55;;;;;;;2.70;1.00;;;22.30;92.30;;;;;;5109976;28;20132;-80
2022/08/07 02:33:24;;;;;;;2.17;0.90;;;22.30;92.80;;;;;;5109726;28;20431;-80
2022/08/07 02:35:52;;;;;;;2.53;1.20;;;22.30;93.30;;;;;;5091229;28;20035;-81
2022/08/07 02:38:19;;;;;;;5.55;1.70;;;22.30;93.50;;;;;;5092735;28;20024;-80
2022/08/07 02:40:46;;;;;;;1.80;1.30;;;22.20;94.00;;;;;;5110194;28;20447;-80
2022/08/07 02:43:13;;;;;;;2.85;1.40;;;22.30;94.40;;;;;;5110208;28;20094;-81
2022/08/07 02:45:43;;;;;;;3.35;1.08;;;22.30;95.30;;;;;;5092086;28;20081;-80
2022/08/07 02:48:09;;;;;;;7.22;1.38;;;22.20;98.40;;;;;;5109778;28;20034;-81
2022/08/07 02:50:40;;;;;;;1.85;0.95;;;22.10;99.90;;;;;;5110405;28;20064;-80
2022/08/07 02:53:10;;;;;;;2.88;1.10;;;21.90;99.90;;;;;;5092131;28;20164;-81
2022/08/07 02:55:42;;;;;;;2.70;0.90;;;21.60;99.90;;;;;;5091420;28;20043;-81
2022/08/07 02:58:10;;;;;;;1.45;0.60;;;21.50;99.90;;;;;;5109794;28;20031;-80
2022/08/07 03:00:39;;;;;;;4.25;1.08;;;21.40;99.90;;;;;;5110043;28;20031;-81
2022/08/07 03:03:07;;;;;;;1.88;1.15;;;21.30;99.90;;;;;;5108640;28;20057;-80
2022/08/07 03:05:35;;;;;;;1.30;1.00;;;21.20;99.90;;;;;;5109777;28;20030;-80
2022/08/07 03:08:02;;;;;;;3.00;1.20;;;21.10;99.90;;;;;;5109283;28;20504;-81
2022/08/07 03:10:27;;;;;;;3.80;1.15;;;21.10;99.90;;;;;;5091492;28;20127;-80
2022/08/07 03:12:53;;;;;;;2.08;0.90;;;21.10;99.90;;;;;;5091514;28;20114;-81
2022/08/07 03:15:20;;;;;;;3.17;0.98;;;21.10;99.90;;;;;;5108900;28;20020;-80
2022/08/07 03:17:46;;;;;;;3.25;1.02;;;21.20;99.90;;;;;;5109006;28;20055;-79
2022/08/07 03:20:12;;;;;;;2.33;1.13;;;21.20;99.90;;;;;;5108735;28;20028;-81
2022/08/07 03:22:40;;;;;;;1.98;1.20;;;21.20;99.90;;;;;;5090817;28;20496;-81
2022/08/07 03:25:07;;;;;;;1.90;1.27;;;21.30;99.90;;;;;;5090844;28;20507;-81
2022/08/07 03:27:33;;;;;;;2.97;1.20;;;21.40;99.90;;;;;;5109588;28;20028;-80
2022/08/07 03:29:59;;;;;;;2.05;1.15;;;21.50;99.90;;;;;;5090780;28;20020;-80
2022/08/07 03:32:31;;;;;;;3.00;1.08;;;21.50;99.90;;;;;;5108544;28;20555;-81
2022/08/07 03:34:59;;;;;;;1.90;1.15;;;21.60;99.90;;;;;;5090914;28;20484;-78
2022/08/07 03:37:30;;;;;;;2.08;1.20;;;21.50;99.90;;;;;;5090896;28;20063;-81
2022/08/07 03:39:57;;;;;;;3.13;1.23;;;21.60;99.90;;;;;;5090484;28;20723;-81
2022/08/07 03:42:24;;;;;;;1.77;0.82;;;21.60;99.90;;;;;;5090770;28;20060;-80
2022/08/07 03:44:51;;;;;;;1.98;1.08;;;21.70;99.90;;;;;;5090828;28;20024;-80
2022/08/07 03:47:17;;;;;;;3.78;1.50;;;21.70;99.90;;;;;;5089869;28;20028;-80
2022/08/07 03:49:43;;;;;;;3.28;1.15;;;21.80;99.90;;;;;;5109001;28;20038;-80
2022/08/07 03:52:10;;;;;;;3.20;1.00;;;21.90;99.90;;;;;;5108856;28;20507;-80
2022/08/07 03:54:36;;;;;;;3.63;1.00;;;21.80;99.90;;;;;;5108594;28;20031;-80
2022/08/07 03:57:02;;;;;;;1.67;1.05;;;21.90;99.90;;;;;;5108108;28;20034;-81
2022/08/07 03:59:28;;;;;;;1.30;0.80;;;21.90;99.90;;;;;;5108691;28;20039;-80
2022/08/07 04:01:55;;;;;;;1.95;0.63;;;21.90;99.90;;;;;;5089503;28;20031;-80
2022/08/07 04:04:22;;;;;;;1.40;0.80;;;22.00;99.90;;;;;;5090112;28;20446;-80
2022/08/07 04:06:47;;;;;;;2.33;0.70;;;22.00;99.90;;;;;;5108492;28;20027;-80
2022/08/07 04:09:14;;;;;;;1.10;0.60;;;22.00;99.90;;;;;;5089707;28;20092;-79
2022/08/07 04:11:40;;;;;;;1.40;0.90;;;22.00;99.90;;;;;;5090047;28;20026;-79
2022/08/07 04:14:07;;;;;;;3.83;0.80;;;22.00;99.90;;;;;;5107906;28;20052;-80
2022/08/07 04:16:33;;;;;;;1.65;0.60;;;22.00;99.90;;;;;;5107665;28;20047;-79
2022/08/07 04:19:00;;;;;;;1.92;0.70;;;22.00;99.90;;;;;;5089587;28;20547;-80
2022/08/07 04:21:25;;;;;;;7.68;0.63;;;22.00;99.90;;;;;;5090072;28;20035;-80
2022/08/07 04:23:52;;;;;;;0.77;0.43;;;22.00;99.90;;;;;;5106928;28;20020;-80
2022/08/07 04:26:17;;;;;;;3.08;0.50;;;22.00;99.90;;;;;;5089796;28;20059;-78
2022/08/07 04:28:43;;;;;;;4.07;0.70;;;21.90;99.90;;;;;;5106187;28;20471;-80
2022/08/07 04:31:10;;;;;;;1.35;0.63;;;21.90;99.90;;;;;;5083953;28;20023;-80
2022/08/07 04:33:36;;;;;;;2.42;0.85;;;22.00;99.90;;;;;;5075854;28;20118;-81
2022/08/07 04:36:09;;;;;;;2.33;1.02;;;22.00;99.90;;;;;;5095670;28;20027;-81
2022/08/07 04:38:36;;;;;;;4.97;0.88;;;22.20;99.90;;;;;;5074238;28;20038;-81
2022/08/07 04:41:02;;;;;;;1.30;0.70;;;22.20;99.90;;;;;;5103010;28;20118;-80
2022/08/07 04:43:36;;;;;;;1.00;0.50;;;22.20;99.90;;;;;;5084977;28;20701;-81
2022/08/07 04:46:12;;;;;;;2.72;0.82;;;22.20;99.90;;;;;;5103389;28;20024;-82
2022/08/07 04:49:01;;;;;;;0.85;0.40;;;22.30;99.90;;;;;;5085361;28;20028;-82
2022/08/07 04:51:54;;;;;;;1.05;0.63;;;22.30;99.90;;;;;;5085560;28;20028;-82
2022/08/07 04:54:50;;;;;;;5.15;0.57;;;22.30;99.90;;;;;;5086384;28;20054;-83
2022/08/07 04:57:32;;;;;;;1.35;0.47;;;22.40;99.90;;;;;;5103658;28;20114;-80
2022/08/07 05:00:05;;;;;;;1.73;0.70;;;22.50;99.90;;;;;;5084254;28;20035;-83
2022/08/07 05:02:52;;;;;;;1.67;0.80;;;22.50;99.90;;;;;;5085639;28;20750;-82
2022/08/07 05:05:27;;;;;;;1.05;0.68;;;22.60;99.90;;;;;;5103320;28;20023;-82
2022/08/07 05:08:10;;;;;;;0.90;0.60;;;22.70;99.90;;;;;;5084982;28;20766;-82
2022/08/07 05:10:47;;;;;;;1.40;0.70;;;22.90;99.90;;;;;;5085206;28;20478;-81
2022/08/07 05:13:29;;;;;;;4.57;1.00;;;23.20;99.90;;;;;;5103078;28;20539;-82
2022/08/07 05:15:56;;;;;;;1.90;0.80;;;23.40;99.90;;;;;;5102072;28;20558;-81
2022/08/07 05:18:28;;;;;;;3.50;0.80;;;23.70;99.90;;;;;;5085745;28;20023;-81
2022/08/07 05:20:57;;;;;;;2.95;0.90;;;23.90;99.90;;;;;;5102593;28;20035;-80
2022/08/07 05:23:34;;;;;;;1.50;1.08;;;24.10;99.90;;;;;;5103048;28;20488;-81
2022/08/07 05:26:02;;;;;;;2.42;1.10;;;24.30;99.90;;;;;;5071960;28;20043;-82
2022/08/07 05:28:29;;;;;;;3.28;0.75;;;24.40;99.90;;;;;;5064791;28;20470;-82
2022/08/07 05:30:56;;;;;;;2.47;0.82;;;24.50;99.90;;;;;;5064743;28;20114;-81
2022/08/07 05:33:22;;;;;;;1.42;0.93;;;24.60;99.90;;;;;;5083784;28;20085;-83
2022/08/07 05:35:51;;;;;;;2.00;1.00;;;24.60;99.90;;;;;;5084892;28;20032;-80
2022/08/07 05:38:18;;;;;;;1.88;0.82;;;24.70;99.90;;;;;;5085646;28;20171;-81
2022/08/07 05:40:44;;;;;;;5.18;0.95;;;24.70;99.90;;;;;;5102028;28;20055;-81
2022/08/07 05:43:10;;;;;;;5.57;1.00;;;24.60;99.90;;;;;;5085131;28;20070;-81
2022/08/07 05:45:36;;;;;;;1.98;0.70;;;24.60;99.90;;;;;;5085184;28;20083;-81
2022/08/07 05:48:03;;;;;;;4.20;0.90;;;24.60;99.90;;;;;;5083715;28;20019;-81
2022/08/07 05:50:31;;;;;;;1.40;1.08;;;24.50;99.90;;;;;;5085073;28;20020;-80
2022/08/07 05:52:56;;;;;;;1.98;0.80;;;24.40;99.90;;;;;;5085215;28;20059;-80
2022/08/07 05:55:23;;;;;;;1.83;0.77;;;24.40;99.90;;;;;;5102809;28;20526;-80
2022/08/07 05:57:50;;;;;;;2.03;0.70;;;24.40;99.60;;;;;;5084650;28;20067;-79
2022/08/07 06:00:16;;;;;;;2.05;0.90;;;24.50;99.20;;;;;;5085056;28;20026;-81
2022/08/07 06:02:46;;;;;;;1.10;0.70;;;24.70;98.30;;;;;;5102628;28;20027;-82
2022/08/07 06:05:13;;;;;;;1.88;0.88;;;24.90;97.30;;;;;;5083640;28;20027;-80
2022/08/07 06:07:39;;;;;;;2.10;0.80;;;25.30;96.60;;;;;;5084877;28;20541;-80
2022/08/07 06:10:08;;;;;;;2.85;0.90;;;25.70;95.90;;;;;;5102910;28;20076;-82
2022/08/07 06:12:34;;;;;;;3.17;0.60;;;26.30;94.00;;;;;;5101977;28;20115;-82
2022/08/07 06:14:59;;;;;;;2.25;0.60;;;26.80;92.80;;;;;;5084597;28;20543;-82
2022/08/07 06:17:26;;;;;;;0.60;0.40;;;27.10;91.30;;;;;;5102556;28;20542;-82
2022/08/07 06:19:53;;;;;;;4.50;0.70;;;27.40;90.20;;;;;;5102114;28;20030;-82
2022/08/07 06:22:18;;;;;;;1.50;0.80;;;27.70;88.00;;;;;;5085379;28;20043;-83
2022/08/07 06:24:45;;;;;;;1.15;0.80;;;28.00;87.90;;;;;;5102666;28;20023;-83
2022/08/07 06:27:22;;;;;;;2.67;0.80;;;28.10;86.70;;;;;;5085091;28;20080;-82
2022/08/07 06:29:48;;;;;;;2.72;0.80;;;28.30;84.80;;;;;;5087188;28;20119;-82
2022/08/07 06:32:14;;;;;;;0.98;0.60;;;28.80;83.20;;;;;;5108230;28;20035;-83
2022/08/07 06:34:39;;;;;;;1.17;0.93;;;28.90;82.30;;;;;;5109319;28;20016;-82
2022/08/07 06:37:05;;;;;;;3.45;0.85;;;28.90;81.90;;;;;;5090350;28;20480;-82
2022/08/07 06:39:31;;;;;;;1.40;0.50;;;28.60;81.60;;;;;;5092314;28;20222;-82
2022/08/07 06:42:20;;;;;;;2.05;0.88;;;28.40;81.50;;;;;;5092036;28;20400;-83
2022/08/07 06:44:48;;;;;;;1.42;0.82;;;28.40;79.90;;;;;;5091872;28;20081;-82
2022/08/07 06:47:14;;;;;;;2.22;0.70;;;28.40;80.40;;;;;;5090991;28;20055;-81
2022/08/07 06:49:41;;;;;;;1.33;0.85;;;28.40;79.80;;;;;;5091710;28;20571;-82
2022/08/07 06:52:10;;;;;;;1.40;0.70;;;28.70;78.50;;;;;;5109835;28;20020;-83
2022/08/07 06:54:38;;;;;;;1.58;0.70;;;29.00;76.10;;;;;;5109652;28;20024;-82
2022/08/07 06:57:05;;;;;;;2.03;0.77;;;29.40;75.70;;;;;;5091460;28;20039;-83
2022/08/07 06:59:34;;;;;;;1.35;0.55;;;29.60;72.70;;;;;;5109420;28;20085;-82
2022/08/07 07:02:01;;;;;;;1.92;0.77;;;29.60;71.00;;;;;;5109799;28;20132;-83
2022/08/07 07:04:29;;;;;;;1.65;0.70;;;29.60;70.60;;;;;;5091566;28;20028;-81
2022/08/07 07:06:56;;;;;;;2.17;0.77;;;29.80;70.20;;;;;;5091065;28;20024;-83
2022/08/07 07:09:27;;;;;;;1.77;0.77;;;29.80;69.00;;;;;;5091232;28;20036;-82
2022/08/07 07:12:05;;;;;;;0.80;0.60;;;30.00;69.30;;;;;;5089937;28;20034;-81
2022/08/07 07:14:36;;;;;;;5.60;0.80;;;30.50;67.40;;;;;;5090763;28;20034;-81
2022/08/07 07:17:09;;;;;;;2.00;0.60;;;31.00;64.60;;;;;;5090108;28;20054;-82
2022/08/07 07:19:45;;;;;;;3.35;0.80;;;31.40;63.30;;;;;;5109566;28;20020;-82
2022/08/07 07:22:11;;;;;;;1.00;0.60;;;31.70;63.20;;;;;;5090774;28;20031;-82
2022/08/07 07:24:38;;;;;;;3.35;0.68;;;31.90;61.60;;;;;;5108764;28;20019;-82
2022/08/07 07:27:06;;;;;;;2.08;0.50;;;31.90;60.40;;;;;;5108699;28;20035;-80
2022/08/07 07:29:36;;;;;;;3.65;0.90;;;31.70;58.50;;;;;;5108596;28;20480;-82
2022/08/07 07:32:05;;;;;;;5.07;0.57;;;31.50;58.10;;;;;;5108585;28;20046;-82
2022/08/07 07:34:33;;;;;;;2.15;0.80;;;31.50;59.30;;;;;;5090655;28;20490;-80
2022/08/07 07:37:02;;;;;;;1.23;0.70;;;31.20;58.60;;;;;;5090525;28;20043;-82
2022/08/07 07:39:30;;;;;;;3.20;0.70;;;31.00;59.20;;;;;;5090364;28;20529;-82
2022/08/07 07:41:56;;;;;;;1.20;0.75;;;30.80;59.60;;;;;;5090753;28;20035;-83
2022/08/07 07:44:23;;;;;;;4.50;0.80;;;30.80;58.90;;;;;;5108286;28;20024;-82
2022/08/07 07:46:50;;;;;;;2.20;0.98;;;30.90;58.30;;;;;;5089999;28;20038;-82
2022/08/07 07:49:18;;;;;;;1.63;0.70;;;30.80;58.40;;;;;;5089719;28;20024;-82
2022/08/07 07:51:47;;;;;;;3.45;0.70;;;31.10;57.60;;;;;;5090351;28;20066;-83
2022/08/07 07:54:16;;;;;;;1.50;0.63;;;31.30;57.20;;;;;;5090084;28;20077;-82
2022/08/07 07:56:43;;;;;;;1.40;0.60;;;31.30;57.50;;;;;;5090057;28;20042;-79
2022/08/07 07:59:09;;;;;;;1.48;0.85;;;31.40;56.30;;;;;;5089861;28;20024;-78
2022/08/07 08:01:38;;;;;;;1.30;0.63;;;31.80;55.40;;;;;;5089879;28;20123;-79
2022/08/07 08:04:06;;;;;;;4.18;0.70;;;32.00;55.00;;;;;;5107888;28;20028;-78
2022/08/07 08:06:33;;;;;;;4.10;1.13;;;32.20;54.70;;;;;;5090024;28;20028;-79
2022/08/07 08:09:01;;;;;;;1.00;0.60;;;32.40;54.50;;;;;;5108802;28;20019;-80
2022/08/07 08:11:28;;;;;;;1.50;0.70;;;32.60;53.80;;;;;;5108534;28;20031;-80
2022/08/07 08:13:54;;;;;;;1.10;0.80;;;32.90;53.00;;;;;;5090153;28;20027;-81
2022/08/07 08:16:22;;;;;;;3.05;0.70;;;33.50;52.50;;;;;;5089402;28;20044;-80
2022/08/07 08:18:53;;;;;;;5.57;0.70;;;34.10;51.90;;;;;;5089436;28;20081;-81
2022/08/07 08:27:04;;;;;;;2.00;0.95;;;35.60;47.30;;;;;;5107853;28;20514;-80
2022/08/07 08:29:50;;;;;;;1.98;0.90;;;35.80;46.30;;;;;;5089150;28;20028;-81
2022/08/07 08:32:22;;;;;;;2.10;1.10;;;36.00;45.20;;;;;;5089207;28;20039;-81
2022/08/07 08:34:50;;;;;;;6.03;0.80;;;36.00;45.50;;;;;;5089019;28;20066;-81
2022/08/07 08:37:18;;;;;;;2.78;0.70;;;36.30;44.70;;;;;;5107751;28;20036;-82
2022/08/07 08:39:45;;;;;;;1.13;0.77;;;36.30;43.40;;;;;;5089285;28;20016;-81
2022/08/07 08:42:15;;;;;;;2.65;0.90;;;36.40;43.30;;;;;;5089127;28;20031;-82
2022/08/07 08:45:04;;;;;;;1.20;0.70;;;36.50;43.70;;;;;;5089987;28;20024;-82
2022/08/07 08:48:03;;;;;;;5.25;1.00;;;36.50;42.30;;;;;;5088637;28;20122;-80
2022/08/07 08:50:31;;;;;;;7.45;0.80;;;36.90;41.10;;;;;;5107308;28;20023;-80
2022/08/07 08:53:20;;;;;;;2.63;1.00;;;37.20;41.20;;;;;;5089161;28;20106;-82
2022/08/07 08:56:11;;;;;;;3.28;0.70;;;37.10;39.40;;;;;;5088601;28;20032;-80
2022/08/07 08:59:00;;;;;;;3.60;0.77;;;37.30;40.00;;;;;;5088752;28;20031;-82
2022/08/07 09:01:30;;;;;;;4.45;0.90;;;37.70;39.20;;;;;;5088162;28;20028;-82
2022/08/07 09:04:44;;;;;;;3.20;0.60;;;37.60;38.90;;;;;;5088529;28;20031;-82
2022/08/07 09:07:48;;;;;;;1.45;0.90;;;37.50;38.90;;;;;;5059939;28;20554;-82
2022/08/07 09:10:24;;;;;;;5.05;0.88;;;37.30;39.10;;;;;;4987924;28;20156;-82
2022/08/07 09:13:34;;;;;;;7.03;1.00;;;37.10;38.60;;;;;;5068986;28;20043;-82
2022/08/07 09:16:35;;;;;;;1.80;0.70;;;37.20;37.70;;;;;;5063123;28;20500;-81
2022/08/07 09:19:22;;;;;;;3.03;0.80;;;36.90;37.90;;;;;;5102927;28;20027;-82
2022/08/07 09:21:52;;;;;;;2.33;0.70;;;36.50;39.00;;;;;;5088488;28;20031;-82
2022/08/07 09:24:40;;;;;;;6.15;0.77;;;36.10;39.20;;;;;;5106709;28;20031;-81
2022/08/07 09:27:18;;;;;;;2.40;0.60;;;35.50;39.10;;;;;;5088517;28;20027;-79
2022/08/07 09:29:47;;;;;;;1.85;0.82;;;34.90;40.00;;;;;;5106940;28;20027;-80
2022/08/07 09:32:39;;;;;;;2.17;0.73;;;34.90;40.60;;;;;;5087955;28;20023;-82
2022/08/07 09:35:43;;;;;;;1.58;0.70;;;35.10;40.50;;;;;;5088491;28;20038;-82
2022/08/07 09:38:18;;;;;;;1.30;0.70;;;35.80;40.50;;;;;;5088206;28;20058;-82
2022/08/07 09:41:08;;;;;;;4.45;0.90;;;36.30;39.40;;;;;;5088374;28;20507;-82
2022/08/07 09:44:00;;;;;;;3.97;0.95;;;36.90;38.20;;;;;;5087997;28;20020;-82
2022/08/07 09:47:05;;;;;;;6.35;0.85;;;36.90;38.20;;;;;;5106964;28;20032;-82
2022/08/07 09:49:37;;;;;;;1.77;0.70;;;37.20;37.20;;;;;;5088276;28;20066;-82
2022/08/07 09:52:20;;;;;;;3.55;0.85;;;37.00;37.30;;;;;;5106377;28;20063;-81
2022/08/07 09:54:54;;;;;;;1.70;0.75;;;36.90;37.30;;;;;;5088223;28;20065;-82
2022/08/07 09:57:47;;;;;;;2.67;0.98;;;36.60;37.50;;;;;;5088260;28;20035;-83
2022/08/07 10:00:15;;;;;;;3.40;0.80;;;36.30;37.30;;;;;;5087629;28;20023;-82
2022/08/07 10:03:05;;;;;;;1.17;0.70;;;36.40;37.80;;;;;;5106681;28;20172;-81
2022/08/07 10:06:08;;;;;;;1.60;0.98;;;36.20;38.30;;;;;;5106819;28;20107;-82
2022/08/07 10:09:28;;;;;;;3.20;0.75;;;36.30;38.80;;;;;;5087924;28;20135;-81
2022/08/07 10:12:05;;;;;;;1.48;0.70;;;36.90;38.60;;;;;;5003353;28;20088;-80
2022/08/07 10:14:34;;;;;;;1.98;0.80;;;37.20;36.60;;;;;;5069929;28;20039;-82
2022/08/07 10:17:30;;;;;;;2.67;0.77;;;36.90;37.70;;;;;;5105771;28;20503;-81
2022/08/07 10:20:29;;;;;;;1.63;0.65;;;36.60;38.40;;;;;;5092117;28;20507;-81
2022/08/07 10:23:21;;;;;;;2.10;1.00;;;36.20;39.30;;;;;;5091997;28;20536;-81
2022/08/07 10:25:56;;;;;;;1.67;0.90;;;35.80;39.20;;;;;;5077448;28;20122;-82
2022/08/07 10:28:34;;;;;;;1.98;0.98;;;35.40;39.70;;;;;;5092226;28;20134;-82
2022/08/07 10:31:51;;;;;;;1.23;0.75;;;34.90;39.20;;;;;;5110862;28;20118;-81
2022/08/07 10:34:55;;;;;;;1.58;0.68;;;34.70;39.90;;;;;;5028272;28;20425;-81
2022/08/07 10:37:39;;;;;;;3.38;1.20;;;33.70;41.20;;;;;;5057514;28;20131;-82
2022/08/07 10:40:16;;;;;;;1.80;0.88;;;33.40;42.50;;;;;;5089924;28;20146;-84
2022/08/07 10:43:06;;;;;;;2.58;1.17;;;33.20;43.60;;;;;;5110854;28;20147;-81
2022/08/07 10:45:37;;;;;;;2.05;0.98;;;33.10;42.40;;;;;;5082705;28;20031;-81
2022/08/07 10:48:24;;;;;;;1.55;0.75;;;33.00;42.60;;;;;;5084794;28;20023;-81
2022/08/07 10:50:57;;;;;;;1.90;0.77;;;33.00;42.20;;;;;;5100056;28;20027;-84
2022/08/07 10:53:47;;;;;;;2.75;1.00;;;32.70;42.50;;;;;;5092868;28;20515;-83
2022/08/07 10:56:23;;;;;;;5.75;1.20;;;32.30;43.50;;;;;;5091822;28;20500;-83
2022/08/07 10:59:25;;;;;;;2.58;1.20;;;32.10;43.60;;;;;;5090576;28;20047;-82
2022/08/07 11:02:22;;;;;;;3.08;0.88;;;31.80;44.50;;;;;;5099552;27;20054;-83
2022/08/07 11:05:06;;;;;;;3.47;0.80;;;31.50;45.90;;;;;;5099644;27;20065;-82
2022/08/07 11:08:02;;;;;;;2.67;0.85;;;31.70;45.80;;;;;;5125981;27;20036;-83
2022/08/07 11:10:38;;;;;;;3.40;1.02;;;31.90;46.00;;;;;;5095716;27;20189;-81
2022/08/07 11:13:23;;;;;;;2.05;0.82;;;32.30;45.40;;;;;;5111913;27;20046;-82
2022/08/07 11:15:54;;;;;;;4.50;1.25;;;32.50;43.50;;;;;;5093137;27;20051;-83
2022/08/07 11:18:32;;;;;;;1.55;0.80;;;32.40;44.30;;;;;;5117172;27;20036;-83
2022/08/07 11:21:06;;;;;;;1.48;1.00;;;32.20;44.00;;;;;;5098778;27;20039;-82
2022/08/07 11:23:55;;;;;;;2.60;1.08;;;32.10;45.40;;;;;;5088633;27;20036;-82
2022/08/07 11:27:02;;;;;;;6.07;1.15;;;31.80;44.20;;;;;;5095222;27;20564;-81
2022/08/07 11:29:41;;;;;;;1.92;0.90;;;31.70;44.90;;;;;;5070676;27;20138;-82
2022/08/07 11:32:19;;;;;;;2.10;1.15;;;31.70;44.50;;;;;;5117985;27;20038;-83
2022/08/07 11:34:47;;;;;;;2.08;1.05;;;31.60;44.10;;;;;;5087485;28;20090;-82
2022/08/07 11:37:44;;;;;;;1.80;1.00;;;31.50;45.70;;;;;;5092630;27;20129;-83
2022/08/07 11:40:27;;;;;;;2.38;0.82;;;31.70;45.80;;;;;;5113779;27;20042;-82
2022/08/07 11:42:57;;;;;;;1.90;0.90;;;31.90;44.50;;;;;;5087238;28;20039;-82
2022/08/07 11:46:00;;;;;;;2.10;1.08;;;32.00;44.60;;;;;;5108385;28;20027;-83
2022/08/07 11:48:33;;;;;;;1.77;1.13;;;32.10;44.50;;;;;;5108101;28;20022;-84
2022/08/07 11:51:46;;;;;;;2.75;0.85;;;32.10;43.40;;;;;;5089742;28;20066;-83
2022/08/07 11:54:39;;;;;;;3.17;0.60;;;32.10;43.70;;;;;;5108557;28;20031;-82
2022/08/07 11:57:30;;;;;;;1.30;0.85;;;32.10;44.00;;;;;;5089624;28;20031;-83
2022/08/07 12:00:14;;;;;;;2.60;0.65;;;32.00;43.50;;;;;;5090260;28;20028;-84
2022/08/07 12:02:54;;;;;;;1.63;0.70;;;32.10;44.30;;;;;;5090039;28;20034;-82
2022/08/07 12:05:39;;;;;;;2.53;0.90;;;32.10;44.00;;;;;;5090232;28;20047;-82
2022/08/07 12:08:16;;;;;;;1.17;0.70;;;32.10;43.20;;;;;;5108684;28;20030;-83
2022/08/07 12:10:53;;;;;;;1.92;0.70;;;31.80;44.20;;;;;;5090046;28;20035;-83
2022/08/07 12:13:24;;;;;;;2.20;0.80;;;31.60;43.60;;;;;;5090125;28;20042;-83
2022/08/07 12:15:58;;;;;;;1.45;0.90;;;31.60;44.00;;;;;;5089965;28;20667;-82
2022/08/07 12:18:26;;;;;;;2.92;1.00;;;31.40;43.50;;;;;;5107853;28;20031;-82
2022/08/07 12:21:27;;;;;;;3.22;0.80;;;31.20;44.20;;;;;;5108124;28;20548;-83
2022/08/07 12:24:08;;;;;;;5.20;0.82;;;31.20;45.20;;;;;;5089523;28;20484;-83
2022/08/07 12:26:39;;;;;;;2.50;0.80;;;31.40;44.90;;;;;;5089660;28;20069;-83
2022/08/07 12:29:15;;;;;;;5.35;0.90;;;31.50;45.10;;;;;;5089727;28;20027;-83
2022/08/07 12:32:00;;;;;;;3.75;0.90;;;31.70;43.60;;;;;;5107963;28;20035;-83
2022/08/07 12:34:30;;;;;;;3.33;0.95;;;31.70;43.20;;;;;;5089766;28;20036;-84
2022/08/07 12:36:58;;;;;;;3.47;1.00;;;31.50;43.20;;;;;;5107443;28;20042;-83
2022/08/07 12:39:25;;;;;;;1.40;0.75;;;31.50;44.50;;;;;;5107495;28;20020;-84
2022/08/07 12:41:54;;;;;;;1.10;0.60;;;31.60;44.50;;;;;;5107607;28;20378;-83
2022/08/07 12:44:23;;;;;;;4.30;0.75;;;31.70;44.50;;;;;;5107719;28;20055;-83
2022/08/07 12:47:00;;;;;;;1.75;0.75;;;31.90;43.80;;;;;;5089857;28;20035;-84
2022/08/07 12:49:41;;;;;;;2.28;0.65;;;31.90;43.60;;;;;;5089554;28;20031;-83
2022/08/07 12:52:12;;;;;;;3.20;1.25;;;31.60;43.20;;;;;;5089965;28;20027;-84
2022/08/07 12:54:59;;;;;;;2.22;0.77;;;31.50;44.00;;;;;;5089396;28;20020;-82
2022/08/07 12:57:33;;;;;;;1.63;0.80;;;31.50;44.30;;;;;;5107035;28;20488;-83
2022/08/07 13:00:02;;;;;;;1.30;0.70;;;31.60;44.50;;;;;;5089414;28;20673;-84
2022/08/07 13:02:59;;;;;;;2.70;0.90;;;31.70;42.70;;;;;;5089117;28;20043;-84
2022/08/07 13:06:13;;;;;;;1.75;1.00;;;31.50;43.10;;;;;;5088885;28;20407;-84
2022/08/07 13:09:10;;;;;;;1.67;0.95;;;31.30;43.90;;;;;;5067409;28;20040;-83
2022/08/07 13:12:07;;;;;;;3.97;0.88;;;31.10;44.40;;;;;;5088720;28;20046;-83
2022/08/07 13:14:51;;;;;;;4.07;1.15;;;31.00;43.60;;;;;;5088623;28;20030;-84
2022/08/07 13:17:34;;;;;;;2.25;1.30;;;31.00;44.00;;;;;;5088603;28;20412;-83
2022/08/07 13:20:10;;;;;;;1.58;0.90;;;31.20;43.90;;;;;;5088137;28;20031;-84
2022/08/07 13:22:44;;;;;;;2.25;1.02;;;31.10;44.40;;;;;;5107569;28;20043;-83
2022/08/07 13:25:13;;;;;;;2.42;1.05;;;31.10;44.50;;;;;;5088264;28;20101;-83
2022/08/07 13:28:01;;;;;;;2.58;1.30;;;31.20;43.90;;;;;;5088719;28;20031;-83